sensor_id;sensor_type;location;lat;lon;timestamp;temperature;humidity
75683;HTU21D;64295;44.772;39.872;2023-06-22T00:01:00;18.61;59.93
75683;HTU21D;64295;44.772;39.872;2023-06-22T00:03:26;18.59;60.00
75683;HTU21D;64295;44.772;39.872;2023-06-22T00:05:52;18.56;60.09
75683;HTU21D;64295;44.772;39.872;2023-06-22T00:08:19;18.52;60.18
75683;HTU21D;64295;44.772;39.872;2023-06-22T00:10:46;18.47;60.31
75683;HTU21D;64295;44.772;39.872;2023-06-22T00:13:12;18.39;60.44
75683;HTU21D;64295;44.772;39.872;2023-06-22T00:15:39;18.37;60.51
75683;HTU21D;64295;44.772;39.872;2023-06-22T00:18:12;18.37;60.56
75683;HTU21D;64295;44.772;39.872;2023-06-22T00:20:43;18.35;60.54
75683;HTU21D;64295;44.772;39.872;2023-06-22T00:23:11;18.30;60.62
75683;HTU21D;64295;44.772;39.872;2023-06-22T00:25:40;18.27;60.70
75683;HTU21D;64295;44.772;39.872;2023-06-22T00:28:06;18.26;60.71
75683;HTU21D;64295;44.772;39.872;2023-06-22T00:30:34;18.27;60.69
75683;HTU21D;64295;44.772;39.872;2023-06-22T00:33:01;18.25;60.71
75683;HTU21D;64295;44.772;39.872;2023-06-22T00:35:27;18.23;60.80
75683;HTU21D;64295;44.772;39.872;2023-06-22T00:37:56;18.21;60.86
75683;HTU21D;64295;44.772;39.872;2023-06-22T00:40:32;18.19;60.89
75683;HTU21D;64295;44.772;39.872;2023-06-22T00:42:59;18.13;60.93
75683;HTU21D;64295;44.772;39.872;2023-06-22T00:45:26;18.05;61.08
75683;HTU21D;64295;44.772;39.872;2023-06-22T00:47:53;17.97;61.26
75683;HTU21D;64295;44.772;39.872;2023-06-22T00:50:32;17.94;61.33
75683;HTU21D;64295;44.772;39.872;2023-06-22T00:53:08;17.94;61.25
75683;HTU21D;64295;44.772;39.872;2023-06-22T00:55:51;17.91;61.38
75683;HTU21D;64295;44.772;39.872;2023-06-22T00:58:22;17.87;61.34
75683;HTU21D;64295;44.772;39.872;2023-06-22T01:00:57;17.84;61.41
75683;HTU21D;64295;44.772;39.872;2023-06-22T01:03:26;17.80;61.48
75683;HTU21D;64295;44.772;39.872;2023-06-22T01:06:01;17.78;61.59
75683;HTU21D;64295;44.772;39.872;2023-06-22T01:08:48;17.81;61.59
75683;HTU21D;64295;44.772;39.872;2023-06-22T01:11:28;17.81;61.51
75683;HTU21D;64295;44.772;39.872;2023-06-22T01:16:31;17.87;61.38
75683;HTU21D;64295;44.772;39.872;2023-06-22T01:19:05;17.85;61.43
75683;HTU21D;64295;44.772;39.872;2023-06-22T01:21:34;17.81;61.48
75683;HTU21D;64295;44.772;39.872;2023-06-22T01:24:22;17.77;61.65
75683;HTU21D;64295;44.772;39.872;2023-06-22T01:30:04;17.68;61.79
75683;HTU21D;64295;44.772;39.872;2023-06-22T01:32:36;17.69;61.71
75683;HTU21D;64295;44.772;39.872;2023-06-22T01:35:05;17.67;61.83
75683;HTU21D;64295;44.772;39.872;2023-06-22T01:37:34;17.66;61.92
75683;HTU21D;64295;44.772;39.872;2023-06-22T01:40:00;17.63;61.74
75683;HTU21D;64295;44.772;39.872;2023-06-22T01:42:27;17.58;61.80
75683;HTU21D;64295;44.772;39.872;2023-06-22T01:44:54;17.48;62.09
75683;HTU21D;64295;44.772;39.872;2023-06-22T01:47:34;17.41;62.40
75683;HTU21D;64295;44.772;39.872;2023-06-22T01:50:03;17.34;62.49
75683;HTU21D;64295;44.772;39.872;2023-06-22T01:52:29;17.23;62.77
75683;HTU21D;64295;44.772;39.872;2023-06-22T01:54:58;17.23;62.83
75683;HTU21D;64295;44.772;39.872;2023-06-22T01:57:27;17.25;62.77
75683;HTU21D;64295;44.772;39.872;2023-06-22T02:00:04;17.31;62.76
75683;HTU21D;64295;44.772;39.872;2023-06-22T02:05:17;17.40;62.48
75683;HTU21D;64295;44.772;39.872;2023-06-22T02:08:21;17.45;62.49
75683;HTU21D;64295;44.772;39.872;2023-06-22T02:10:49;17.40;62.44
75683;HTU21D;64295;44.772;39.872;2023-06-22T02:13:16;17.45;62.44
75683;HTU21D;64295;44.772;39.872;2023-06-22T02:15:43;17.49;62.37
75683;HTU21D;64295;44.772;39.872;2023-06-22T02:18:12;17.52;62.34
75683;HTU21D;64295;44.772;39.872;2023-06-22T02:20:38;17.54;62.34
75683;HTU21D;64295;44.772;39.872;2023-06-22T02:23:06;17.60;62.34
75683;HTU21D;64295;44.772;39.872;2023-06-22T02:25:35;17.64;62.29
75683;HTU21D;64295;44.772;39.872;2023-06-22T02:28:01;17.67;62.27
75683;HTU21D;64295;44.772;39.872;2023-06-22T02:30:27;17.72;62.22
75683;HTU21D;64295;44.772;39.872;2023-06-22T02:32:53;17.76;62.21
75683;HTU21D;64295;44.772;39.872;2023-06-22T02:35:28;17.75;62.27
75683;HTU21D;64295;44.772;39.872;2023-06-22T02:38:01;17.76;62.31
75683;HTU21D;64295;44.772;39.872;2023-06-22T02:40:28;17.79;62.21
75683;HTU21D;64295;44.772;39.872;2023-06-22T02:42:56;17.83;62.14
75683;HTU21D;64295;44.772;39.872;2023-06-22T02:45:23;17.87;62.15
75683;HTU21D;64295;44.772;39.872;2023-06-22T02:47:50;17.89;62.11
75683;HTU21D;64295;44.772;39.872;2023-06-22T02:50:17;17.93;62.05
75683;HTU21D;64295;44.772;39.872;2023-06-22T02:52:44;17.97;62.05
75683;HTU21D;64295;44.772;39.872;2023-06-22T02:55:10;18.00;62.02
75683;HTU21D;64295;44.772;39.872;2023-06-22T02:57:36;18.06;62.02
75683;HTU21D;64295;44.772;39.872;2023-06-22T03:00:03;18.09;62.00
75683;HTU21D;64295;44.772;39.872;2023-06-22T03:02:46;18.09;62.04
75683;HTU21D;64295;44.772;39.872;2023-06-22T03:05:14;18.14;62.04
75683;HTU21D;64295;44.772;39.872;2023-06-22T03:07:41;18.13;62.12
75683;HTU21D;64295;44.772;39.872;2023-06-22T03:10:09;18.20;62.08
75683;HTU21D;64295;44.772;39.872;2023-06-22T03:12:37;18.27;61.99
75683;HTU21D;64295;44.772;39.872;2023-06-22T03:15:08;18.32;61.97
75683;HTU21D;64295;44.772;39.872;2023-06-22T03:17:35;18.36;61.89
75683;HTU21D;64295;44.772;39.872;2023-06-22T03:20:02;18.43;61.84
75683;HTU21D;64295;44.772;39.872;2023-06-22T03:22:39;18.43;61.88
75683;HTU21D;64295;44.772;39.872;2023-06-22T03:25:08;18.49;61.85
75683;HTU21D;64295;44.772;39.872;2023-06-22T03:27:42;18.55;61.75
75683;HTU21D;64295;44.772;39.872;2023-06-22T03:30:12;18.61;61.68
75683;HTU21D;64295;44.772;39.872;2023-06-22T03:32:38;18.63;61.70
75683;HTU21D;64295;44.772;39.872;2023-06-22T03:35:06;18.65;61.68
75683;HTU21D;64295;44.772;39.872;2023-06-22T03:37:34;18.71;61.60
75683;HTU21D;64295;44.772;39.872;2023-06-22T03:40:00;18.83;61.44
75683;HTU21D;64295;44.772;39.872;2023-06-22T03:42:28;18.95;61.33
75683;HTU21D;64295;44.772;39.872;2023-06-22T03:44:54;19.05;61.21
75683;HTU21D;64295;44.772;39.872;2023-06-22T03:47:20;19.09;61.18
75683;HTU21D;64295;44.772;39.872;2023-06-22T03:49:46;19.17;61.15
75683;HTU21D;64295;44.772;39.872;2023-06-22T03:52:11;19.24;61.11
75683;HTU21D;64295;44.772;39.872;2023-06-22T03:54:37;19.28;61.08
75683;HTU21D;64295;44.772;39.872;2023-06-22T03:57:04;19.36;61.05
75683;HTU21D;64295;44.772;39.872;2023-06-22T03:59:30;19.43;60.99
75683;HTU21D;64295;44.772;39.872;2023-06-22T04:01:55;19.50;60.93
75683;HTU21D;64295;44.772;39.872;2023-06-22T04:04:24;19.58;60.90
75683;HTU21D;64295;44.772;39.872;2023-06-22T04:06:50;19.66;60.70
75683;HTU21D;64295;44.772;39.872;2023-06-22T04:09:18;19.72;60.55
75683;HTU21D;64295;44.772;39.872;2023-06-22T04:11:44;19.80;60.53
75683;HTU21D;64295;44.772;39.872;2023-06-22T04:14:11;19.85;60.57
75683;HTU21D;64295;44.772;39.872;2023-06-22T04:16:51;19.92;60.51
75683;HTU21D;64295;44.772;39.872;2023-06-22T04:19:17;20.01;60.43
75683;HTU21D;64295;44.772;39.872;2023-06-22T04:21:46;20.12;60.38
75683;HTU21D;64295;44.772;39.872;2023-06-22T04:24:14;20.20;60.27
75683;HTU21D;64295;44.772;39.872;2023-06-22T04:26:42;20.30;60.22
75683;HTU21D;64295;44.772;39.872;2023-06-22T04:29:11;20.37;60.09
75683;HTU21D;64295;44.772;39.872;2023-06-22T04:31:37;20.44;60.00
75683;HTU21D;64295;44.772;39.872;2023-06-22T04:34:09;20.54;59.97
75683;HTU21D;64295;44.772;39.872;2023-06-22T04:36:49;20.62;59.94
75683;HTU21D;64295;44.772;39.872;2023-06-22T04:39:15;20.73;59.81
75683;HTU21D;64295;44.772;39.872;2023-06-22T04:41:41;20.80;59.75
75683;HTU21D;64295;44.772;39.872;2023-06-22T04:44:20;20.91;59.73
75683;HTU21D;64295;44.772;39.872;2023-06-22T04:46:53;21.00;59.61
75683;HTU21D;64295;44.772;39.872;2023-06-22T04:49:20;21.10;59.57
75683;HTU21D;64295;44.772;39.872;2023-06-22T04:51:47;21.18;59.54
75683;HTU21D;64295;44.772;39.872;2023-06-22T04:54:14;21.31;59.52
75683;HTU21D;64295;44.772;39.872;2023-06-22T04:56:39;21.43;59.44
75683;HTU21D;64295;44.772;39.872;2023-06-22T04:59:07;21.54;59.33
75683;HTU21D;64295;44.772;39.872;2023-06-22T05:01:33;21.65;59.24
75683;HTU21D;64295;44.772;39.872;2023-06-22T05:04:00;21.75;59.19
75683;HTU21D;64295;44.772;39.872;2023-06-22T05:06:28;21.85;59.12
75683;HTU21D;64295;44.772;39.872;2023-06-22T05:08:54;21.92;59.07
75683;HTU21D;64295;44.772;39.872;2023-06-22T05:11:31;22.04;58.97
75683;HTU21D;64295;44.772;39.872;2023-06-22T05:13:57;22.14;58.76
75683;HTU21D;64295;44.772;39.872;2023-06-22T05:16:24;22.27;58.61
75683;HTU21D;64295;44.772;39.872;2023-06-22T05:18:53;22.37;58.53
75683;HTU21D;64295;44.772;39.872;2023-06-22T05:21:22;22.49;58.34
75683;HTU21D;64295;44.772;39.872;2023-06-22T05:23:49;22.62;58.13
75683;HTU21D;64295;44.772;39.872;2023-06-22T05:26:15;22.70;58.05
75683;HTU21D;64295;44.772;39.872;2023-06-22T05:28:41;22.82;57.96
75683;HTU21D;64295;44.772;39.872;2023-06-22T05:31:07;22.95;57.80
75683;HTU21D;64295;44.772;39.872;2023-06-22T05:33:32;23.03;57.64
75683;HTU21D;64295;44.772;39.872;2023-06-22T05:35:58;23.12;57.57
75683;HTU21D;64295;44.772;39.872;2023-06-22T05:38:24;23.22;57.48
75683;HTU21D;64295;44.772;39.872;2023-06-22T05:40:50;23.32;57.37
75683;HTU21D;64295;44.772;39.872;2023-06-22T05:43:16;23.43;57.30
75683;HTU21D;64295;44.772;39.872;2023-06-22T05:45:42;23.54;57.16
75683;HTU21D;64295;44.772;39.872;2023-06-22T05:48:08;23.67;57.01
75683;HTU21D;64295;44.772;39.872;2023-06-22T05:50:34;23.76;56.88
75683;HTU21D;64295;44.772;39.872;2023-06-22T05:52:59;23.86;56.73
75683;HTU21D;64295;44.772;39.872;2023-06-22T05:55:25;23.99;56.49
75683;HTU21D;64295;44.772;39.872;2023-06-22T05:57:51;24.10;56.32
75683;HTU21D;64295;44.772;39.872;2023-06-22T06:00:17;24.17;56.22
75683;HTU21D;64295;44.772;39.872;2023-06-22T06:02:43;24.28;56.10
75683;HTU21D;64295;44.772;39.872;2023-06-22T06:05:12;24.39;55.90
75683;HTU21D;64295;44.772;39.872;2023-06-22T06:07:42;24.45;55.74
75683;HTU21D;64295;44.772;39.872;2023-06-22T06:10:09;24.55;55.61
75683;HTU21D;64295;44.772;39.872;2023-06-22T06:12:35;24.62;55.55
75683;HTU21D;64295;44.772;39.872;2023-06-22T06:15:02;24.70;55.46
75683;HTU21D;64295;44.772;39.872;2023-06-22T06:17:27;24.79;55.29
75683;HTU21D;64295;44.772;39.872;2023-06-22T06:19:53;24.88;55.11
75683;HTU21D;64295;44.772;39.872;2023-06-22T06:22:19;24.97;54.91
75683;HTU21D;64295;44.772;39.872;2023-06-22T06:24:47;25.04;54.68
75683;HTU21D;64295;44.772;39.872;2023-06-22T06:27:13;25.07;54.62
75683;HTU21D;64295;44.772;39.872;2023-06-22T06:29:39;25.15;54.52
75683;HTU21D;64295;44.772;39.872;2023-06-22T06:32:06;25.25;54.41
75683;HTU21D;64295;44.772;39.872;2023-06-22T06:34:32;25.36;54.27
75683;HTU21D;64295;44.772;39.872;2023-06-22T06:36:58;25.44;54.17
75683;HTU21D;64295;44.772;39.872;2023-06-22T06:39:23;25.52;53.98
75683;HTU21D;64295;44.772;39.872;2023-06-22T06:41:50;25.61;53.86
75683;HTU21D;64295;44.772;39.872;2023-06-22T06:44:17;25.65;53.85
75683;HTU21D;64295;44.772;39.872;2023-06-22T06:46:42;25.76;53.81
75683;HTU21D;64295;44.772;39.872;2023-06-22T06:49:08;25.84;53.72
75683;HTU21D;64295;44.772;39.872;2023-06-22T06:51:34;25.93;53.64
75683;HTU21D;64295;44.772;39.872;2023-06-22T06:54:00;25.97;53.50
75683;HTU21D;64295;44.772;39.872;2023-06-22T06:56:26;26.06;53.38
75683;HTU21D;64295;44.772;39.872;2023-06-22T06:58:52;26.16;53.25
75683;HTU21D;64295;44.772;39.872;2023-06-22T07:01:18;26.26;53.13
75683;HTU21D;64295;44.772;39.872;2023-06-22T07:03:45;26.36;53.02
75683;HTU21D;64295;44.772;39.872;2023-06-22T07:06:11;26.43;52.86
75683;HTU21D;64295;44.772;39.872;2023-06-22T07:08:37;26.49;52.73
75683;HTU21D;64295;44.772;39.872;2023-06-22T07:11:05;26.54;52.57
75683;HTU21D;64295;44.772;39.872;2023-06-22T07:13:31;26.62;52.50
75683;HTU21D;64295;44.772;39.872;2023-06-22T07:15:57;26.68;52.39
75683;HTU21D;64295;44.772;39.872;2023-06-22T07:18:23;26.78;52.08
75683;HTU21D;64295;44.772;39.872;2023-06-22T07:20:49;26.80;51.82
75683;HTU21D;64295;44.772;39.872;2023-06-22T07:23:16;26.85;51.70
75683;HTU21D;64295;44.772;39.872;2023-06-22T07:25:42;26.91;51.53
75683;HTU21D;64295;44.772;39.872;2023-06-22T07:28:08;26.99;51.40
75683;HTU21D;64295;44.772;39.872;2023-06-22T07:30:34;27.07;51.21
75683;HTU21D;64295;44.772;39.872;2023-06-22T07:33:01;27.14;50.97
75683;HTU21D;64295;44.772;39.872;2023-06-22T07:35:29;27.20;50.80
75683;HTU21D;64295;44.772;39.872;2023-06-22T07:37:55;27.26;50.72
75683;HTU21D;64295;44.772;39.872;2023-06-22T07:40:21;27.37;50.59
75683;HTU21D;64295;44.772;39.872;2023-06-22T07:42:47;27.49;50.34
75683;HTU21D;64295;44.772;39.872;2023-06-22T07:45:17;27.55;50.27
75683;HTU21D;64295;44.772;39.872;2023-06-22T07:47:43;27.64;50.13
75683;HTU21D;64295;44.772;39.872;2023-06-22T07:50:09;27.63;50.03
75683;HTU21D;64295;44.772;39.872;2023-06-22T07:52:35;27.58;50.07
75683;HTU21D;64295;44.772;39.872;2023-06-22T07:55:02;27.60;50.09
75683;HTU21D;64295;44.772;39.872;2023-06-22T07:57:28;27.56;50.07
75683;HTU21D;64295;44.772;39.872;2023-06-22T08:00:00;27.60;49.88
75683;HTU21D;64295;44.772;39.872;2023-06-22T08:02:26;27.70;49.66
75683;HTU21D;64295;44.772;39.872;2023-06-22T08:04:52;27.84;49.34
75683;HTU21D;64295;44.772;39.872;2023-06-22T08:07:18;27.93;49.05
75683;HTU21D;64295;44.772;39.872;2023-06-22T08:09:48;27.96;48.97
75683;HTU21D;64295;44.772;39.872;2023-06-22T08:12:15;27.99;48.90
75683;HTU21D;64295;44.772;39.872;2023-06-22T08:14:42;28.02;48.75
75683;HTU21D;64295;44.772;39.872;2023-06-22T08:17:10;28.10;48.76
75683;HTU21D;64295;44.772;39.872;2023-06-22T08:19:37;28.18;48.57
75683;HTU21D;64295;44.772;39.872;2023-06-22T08:22:03;28.19;48.48
75683;HTU21D;64295;44.772;39.872;2023-06-22T08:24:29;28.13;48.69
75683;HTU21D;64295;44.772;39.872;2023-06-22T08:26:56;28.12;48.78
75683;HTU21D;64295;44.772;39.872;2023-06-22T08:29:22;28.13;48.73
75683;HTU21D;64295;44.772;39.872;2023-06-22T08:31:47;28.09;48.63
75683;HTU21D;64295;44.772;39.872;2023-06-22T08:34:13;28.13;48.66
75683;HTU21D;64295;44.772;39.872;2023-06-22T08:36:39;28.21;48.45
75683;HTU21D;64295;44.772;39.872;2023-06-22T08:39:08;28.29;48.43
75683;HTU21D;64295;44.772;39.872;2023-06-22T08:41:34;28.43;47.99
75683;HTU21D;64295;44.772;39.872;2023-06-22T08:44:00;28.52;47.73
75683;HTU21D;64295;44.772;39.872;2023-06-22T08:46:26;28.62;47.63
75683;HTU21D;64295;44.772;39.872;2023-06-22T08:48:56;28.76;47.22
75683;HTU21D;64295;44.772;39.872;2023-06-22T08:51:23;28.75;47.02
75683;HTU21D;64295;44.772;39.872;2023-06-22T08:53:49;28.71;46.84
75683;HTU21D;64295;44.772;39.872;2023-06-22T08:56:15;28.68;46.67
75683;HTU21D;64295;44.772;39.872;2023-06-22T08:58:41;28.70;46.41
75683;HTU21D;64295;44.772;39.872;2023-06-22T09:01:07;28.70;46.28
75683;HTU21D;64295;44.772;39.872;2023-06-22T09:03:33;28.75;46.20
75683;HTU21D;64295;44.772;39.872;2023-06-22T09:06:01;28.77;46.57
75683;HTU21D;64295;44.772;39.872;2023-06-22T09:08:27;28.76;46.25
75683;HTU21D;64295;44.772;39.872;2023-06-22T09:10:53;28.82;45.95
75683;HTU21D;64295;44.772;39.872;2023-06-22T09:13:19;28.80;45.88
75683;HTU21D;64295;44.772;39.872;2023-06-22T09:15:45;28.86;45.77
75683;HTU21D;64295;44.772;39.872;2023-06-22T09:18:11;28.92;45.49
75683;HTU21D;64295;44.772;39.872;2023-06-22T09:20:37;28.98;45.31
75683;HTU21D;64295;44.772;39.872;2023-06-22T09:23:03;29.04;45.18
75683;HTU21D;64295;44.772;39.872;2023-06-22T09:25:29;29.11;44.94
75683;HTU21D;64295;44.772;39.872;2023-06-22T09:27:54;29.15;44.90
75683;HTU21D;64295;44.772;39.872;2023-06-22T09:30:21;29.19;44.82
75683;HTU21D;64295;44.772;39.872;2023-06-22T09:32:47;29.23;44.54
75683;HTU21D;64295;44.772;39.872;2023-06-22T09:35:13;29.24;44.41
75683;HTU21D;64295;44.772;39.872;2023-06-22T09:37:40;29.29;44.38
75683;HTU21D;64295;44.772;39.872;2023-06-22T09:40:07;29.41;44.24
75683;HTU21D;64295;44.772;39.872;2023-06-22T09:42:38;29.50;44.10
75683;HTU21D;64295;44.772;39.872;2023-06-22T09:45:05;29.59;44.00
75683;HTU21D;64295;44.772;39.872;2023-06-22T09:47:31;29.72;43.80
75683;HTU21D;64295;44.772;39.872;2023-06-22T09:49:57;29.77;43.68
75683;HTU21D;64295;44.772;39.872;2023-06-22T09:52:25;29.80;43.58
75683;HTU21D;64295;44.772;39.872;2023-06-22T09:54:51;29.70;43.67
75683;HTU21D;64295;44.772;39.872;2023-06-22T09:57:17;29.56;43.64
75683;HTU21D;64295;44.772;39.872;2023-06-22T09:59:43;29.41;43.58
75683;HTU21D;64295;44.772;39.872;2023-06-22T10:02:09;29.45;43.22
75683;HTU21D;64295;44.772;39.872;2023-06-22T10:04:35;29.51;43.19
75683;HTU21D;64295;44.772;39.872;2023-06-22T10:07:02;29.61;42.85
75683;HTU21D;64295;44.772;39.872;2023-06-22T10:09:28;29.60;42.52
75683;HTU21D;64295;44.772;39.872;2023-06-22T10:11:54;29.57;42.48
75683;HTU21D;64295;44.772;39.872;2023-06-22T10:14:20;29.67;42.22
75683;HTU21D;64295;44.772;39.872;2023-06-22T10:16:46;29.78;41.94
75683;HTU21D;64295;44.772;39.872;2023-06-22T10:19:12;29.78;41.72
75683;HTU21D;64295;44.772;39.872;2023-06-22T10:21:37;29.82;41.74
75683;HTU21D;64295;44.772;39.872;2023-06-22T10:24:03;29.88;41.63
75683;HTU21D;64295;44.772;39.872;2023-06-22T10:26:35;29.93;41.34
75683;HTU21D;64295;44.772;39.872;2023-06-22T10:29:02;29.92;41.13
75683;HTU21D;64295;44.772;39.872;2023-06-22T10:31:28;29.89;41.09
75683;HTU21D;64295;44.772;39.872;2023-06-22T10:33:55;29.93;41.09
75683;HTU21D;64295;44.772;39.872;2023-06-22T10:36:22;30.06;41.02
75683;HTU21D;64295;44.772;39.872;2023-06-22T10:38:48;30.09;40.97
75683;HTU21D;64295;44.772;39.872;2023-06-22T10:41:14;30.09;40.76
75683;HTU21D;64295;44.772;39.872;2023-06-22T10:43:41;30.01;40.61
75683;HTU21D;64295;44.772;39.872;2023-06-22T10:46:07;29.94;40.71
75683;HTU21D;64295;44.772;39.872;2023-06-22T10:48:33;30.00;40.66
75683;HTU21D;64295;44.772;39.872;2023-06-22T10:50:59;30.11;40.50
75683;HTU21D;64295;44.772;39.872;2023-06-22T10:53:25;30.25;40.23
75683;HTU21D;64295;44.772;39.872;2023-06-22T12:48:36;30.04;38.59
75683;HTU21D;64295;44.772;39.872;2023-06-22T13:04:57;29.92;38.60
75683;HTU21D;64295;44.772;39.872;2023-06-22T13:08:40;29.81;38.56
75683;HTU21D;64295;44.772;39.872;2023-06-22T13:11:50;29.77;38.51
75683;HTU21D;64295;44.772;39.872;2023-06-22T13:52:06;28.82;38.00
75683;HTU21D;64295;44.772;39.872;2023-06-22T14:47:08;27.59;36.82
75683;HTU21D;64295;44.772;39.872;2023-06-22T15:29:32;26.56;36.50
75683;HTU21D;64295;44.772;39.872;2023-06-22T15:31:59;26.49;36.44
75683;HTU21D;64295;44.772;39.872;2023-06-22T15:34:25;26.41;36.41
75683;HTU21D;64295;44.772;39.872;2023-06-22T15:36:51;26.35;36.38
75683;HTU21D;64295;44.772;39.872;2023-06-22T15:39:17;26.31;36.33
75683;HTU21D;64295;44.772;39.872;2023-06-22T15:41:43;26.26;36.28
75683;HTU21D;64295;44.772;39.872;2023-06-22T15:44:09;26.18;36.22
75683;HTU21D;64295;44.772;39.872;2023-06-22T15:46:35;26.06;36.21
75683;HTU21D;64295;44.772;39.872;2023-06-22T15:49:01;25.98;36.18
75683;HTU21D;64295;44.772;39.872;2023-06-22T15:51:27;25.90;36.21
75683;HTU21D;64295;44.772;39.872;2023-06-22T15:53:54;25.83;36.18
75683;HTU21D;64295;44.772;39.872;2023-06-22T15:56:20;25.77;36.18
75683;HTU21D;64295;44.772;39.872;2023-06-22T15:58:46;25.74;36.20
75683;HTU21D;64295;44.772;39.872;2023-06-22T16:01:12;25.67;36.27
75683;HTU21D;64295;44.772;39.872;2023-06-22T16:03:38;25.60;36.37
75683;HTU21D;64295;44.772;39.872;2023-06-22T16:06:04;25.53;36.46
75683;HTU21D;64295;44.772;39.872;2023-06-22T16:08:30;25.49;36.53
75683;HTU21D;64295;44.772;39.872;2023-06-22T16:10:56;25.43;36.64
75683;HTU21D;64295;44.772;39.872;2023-06-22T16:13:22;25.36;36.72
75683;HTU21D;64295;44.772;39.872;2023-06-22T16:15:48;25.33;36.80
75683;HTU21D;64295;44.772;39.872;2023-06-22T16:18:14;25.25;36.87
75683;HTU21D;64295;44.772;39.872;2023-06-22T16:20:41;25.23;36.92
75683;HTU21D;64295;44.772;39.872;2023-06-22T16:23:07;25.17;37.05
75683;HTU21D;64295;44.772;39.872;2023-06-22T16:25:33;25.12;37.12
75683;HTU21D;64295;44.772;39.872;2023-06-22T16:27:59;25.05;37.22
75683;HTU21D;64295;44.772;39.872;2023-06-22T16:30:25;24.99;37.33
75683;HTU21D;64295;44.772;39.872;2023-06-22T16:32:55;24.94;37.41
75683;HTU21D;64295;44.772;39.872;2023-06-22T16:35:25;24.90;37.50
75683;HTU21D;64295;44.772;39.872;2023-06-22T16:37:57;24.86;37.54
75683;HTU21D;64295;44.772;39.872;2023-06-22T16:40:23;24.79;37.66
75683;HTU21D;64295;44.772;39.872;2023-06-22T16:42:50;24.76;37.75
75683;HTU21D;64295;44.772;39.872;2023-06-22T16:45:18;24.70;37.83
75683;HTU21D;64295;44.772;39.872;2023-06-22T16:47:49;24.64;37.91
75683;HTU21D;64295;44.772;39.872;2023-06-22T16:50:15;24.58;38.04
75683;HTU21D;64295;44.772;39.872;2023-06-22T16:52:41;24.53;38.17
75683;HTU21D;64295;44.772;39.872;2023-06-22T16:55:12;24.48;38.28
75683;HTU21D;64295;44.772;39.872;2023-06-22T16:57:39;24.42;38.42
75683;HTU21D;64295;44.772;39.872;2023-06-22T17:00:05;24.36;38.61
75683;HTU21D;64295;44.772;39.872;2023-06-22T17:02:48;24.32;38.76
75683;HTU21D;64295;44.772;39.872;2023-06-22T17:05:15;24.24;38.99
75683;HTU21D;64295;44.772;39.872;2023-06-22T17:07:57;24.17;39.17
75683;HTU21D;64295;44.772;39.872;2023-06-22T17:10:23;24.10;39.44
75683;HTU21D;64295;44.772;39.872;2023-06-22T17:12:49;24.06;39.64
75683;HTU21D;64295;44.772;39.872;2023-06-22T17:15:16;24.01;39.85
75683;HTU21D;64295;44.772;39.872;2023-06-22T17:17:42;23.96;40.05
75683;HTU21D;64295;44.772;39.872;2023-06-22T17:20:09;23.90;40.23
75683;HTU21D;64295;44.772;39.872;2023-06-22T17:22:36;23.82;40.40
75683;HTU21D;64295;44.772;39.872;2023-06-22T17:25:06;23.76;40.56
75683;HTU21D;64295;44.772;39.872;2023-06-22T17:27:34;23.70;40.75
75683;HTU21D;64295;44.772;39.872;2023-06-22T17:30:11;23.64;40.94
75683;HTU21D;64295;44.772;39.872;2023-06-22T17:32:47;23.56;41.13
75683;HTU21D;64295;44.772;39.872;2023-06-22T17:35:13;23.51;41.30
75683;HTU21D;64295;44.772;39.872;2023-06-22T17:37:56;23.45;41.42
75683;HTU21D;64295;44.772;39.872;2023-06-22T17:40:24;23.39;41.61
75683;HTU21D;64295;44.772;39.872;2023-06-22T17:43:05;23.28;41.87
75683;HTU21D;64295;44.772;39.872;2023-06-22T17:45:32;23.20;42.08
75683;HTU21D;64295;44.772;39.872;2023-06-22T17:48:08;23.11;42.26
75683;HTU21D;64295;44.772;39.872;2023-06-22T17:50:38;23.05;42.40
75683;HTU21D;64295;44.772;39.872;2023-06-22T17:53:12;22.93;42.60
75683;HTU21D;64295;44.772;39.872;2023-06-22T17:55:39;22.82;42.82
75683;HTU21D;64295;44.772;39.872;2023-06-22T17:58:05;22.73;43.05
75683;HTU21D;64295;44.772;39.872;2023-06-22T18:00:32;22.63;43.22
75683;HTU21D;64295;44.772;39.872;2023-06-22T18:02:58;22.50;43.42
75683;HTU21D;64295;44.772;39.872;2023-06-22T18:05:34;22.41;43.61
75683;HTU21D;64295;44.772;39.872;2023-06-22T18:08:05;22.38;43.72
75683;HTU21D;64295;44.772;39.872;2023-06-22T18:10:33;22.29;43.86
75683;HTU21D;64295;44.772;39.872;2023-06-22T18:13:00;22.25;43.96
75683;HTU21D;64295;44.772;39.872;2023-06-22T18:15:27;22.23;44.07
75683;HTU21D;64295;44.772;39.872;2023-06-22T18:17:53;22.19;44.16
75683;HTU21D;64295;44.772;39.872;2023-06-22T18:20:20;22.14;44.29
75683;HTU21D;64295;44.772;39.872;2023-06-22T18:22:47;22.11;44.41
75683;HTU21D;64295;44.772;39.872;2023-06-22T18:25:14;22.08;44.48
75683;HTU21D;64295;44.772;39.872;2023-06-22T18:27:43;22.03;44.66
75683;HTU21D;64295;44.772;39.872;2023-06-22T18:30:16;22.01;44.79
75683;HTU21D;64295;44.772;39.872;2023-06-22T18:32:42;21.97;44.87
75683;HTU21D;64295;44.772;39.872;2023-06-22T18:35:10;21.94;44.97
75683;HTU21D;64295;44.772;39.872;2023-06-22T18:37:39;21.90;45.08
75683;HTU21D;64295;44.772;39.872;2023-06-22T18:40:07;21.81;45.24
75683;HTU21D;64295;44.772;39.872;2023-06-22T18:42:38;21.74;45.41
75683;HTU21D;64295;44.772;39.872;2023-06-22T18:45:24;21.64;45.62
75683;HTU21D;64295;44.772;39.872;2023-06-22T18:50:43;21.47;45.93
75683;HTU21D;64295;44.772;39.872;2023-06-22T18:53:26;21.42;46.02
75683;HTU21D;64295;44.772;39.872;2023-06-22T18:56:10;21.35;46.12
75683;HTU21D;64295;44.772;39.872;2023-06-22T18:58:37;21.29;46.22
75683;HTU21D;64295;44.772;39.872;2023-06-22T19:01:22;21.13;46.51
75683;HTU21D;64295;44.772;39.872;2023-06-22T19:03:57;20.98;46.73
75683;HTU21D;64295;44.772;39.872;2023-06-22T19:09:18;20.85;46.94
75683;HTU21D;64295;44.772;39.872;2023-06-22T19:11:45;20.80;47.04
75683;HTU21D;64295;44.772;39.872;2023-06-22T19:14:21;20.70;47.28
75683;HTU21D;64295;44.772;39.872;2023-06-22T19:16:47;20.62;47.43
75683;HTU21D;64295;44.772;39.872;2023-06-22T19:19:23;20.54;47.60
75683;HTU21D;64295;44.772;39.872;2023-06-22T19:21:59;20.41;47.83
75683;HTU21D;64295;44.772;39.872;2023-06-22T19:24:30;20.32;47.97
75683;HTU21D;64295;44.772;39.872;2023-06-22T19:26:56;20.22;48.14
75683;HTU21D;64295;44.772;39.872;2023-06-22T19:29:23;20.16;48.32
75683;HTU21D;64295;44.772;39.872;2023-06-22T19:31:50;20.16;48.37
75683;HTU21D;64295;44.772;39.872;2023-06-22T19:34:16;20.12;48.45
75683;HTU21D;64295;44.772;39.872;2023-06-22T19:36:42;20.12;48.53
75683;HTU21D;64295;44.772;39.872;2023-06-22T19:39:07;20.16;48.55
75683;HTU21D;64295;44.772;39.872;2023-06-22T19:41:34;20.16;48.58